sensor_id;sensor_type;location;lat;lon;timestamp;P1;durP1;ratioP1;P2;durP2;ratioP2
17494;SDS011;8864;51.970;4.614;2022-07-11T00:00:48;2.15;;;0.80;;
17494;SDS011;8864;51.970;4.614;2022-07-11T00:03:14;0.90;;;0.60;;
17494;SDS011;8864;51.970;4.614;2022-07-11T00:05:41;1.50;;;0.80;;
17494;SDS011;8864;51.970;4.614;2022-07-11T00:08:09;0.93;;;0.60;;
17494;SDS011;8864;51.970;4.614;2022-07-11T00:10:36;0.88;;;0.60;;
17494;SDS011;8864;51.970;4.614;2022-07-11T00:13:03;2.47;;;0.82;;
17494;SDS011;8864;51.970;4.614;2022-07-11T00:15:30;1.20;;;0.80;;
17494;SDS011;8864;51.970;4.614;2022-07-11T00:17:56;1.85;;;0.70;;
17494;SDS011;8864;51.970;4.614;2022-07-11T00:20:23;1.77;;;0.82;;
17494;SDS011;8864;51.970;4.614;2022-07-11T00:22:50;1.25;;;0.80;;
17494;SDS011;8864;51.970;4.614;2022-07-11T00:25:18;1.45;;;0.75;;
17494;SDS011;8864;51.970;4.614;2022-07-11T00:27:45;0.95;;;0.70;;
17494;SDS011;8864;51.970;4.614;2022-07-11T00:30:12;0.60;;;0.50;;
17494;SDS011;8864;51.970;4.614;2022-07-11T00:32:41;2.03;;;0.80;;
17494;SDS011;8864;51.970;4.614;2022-07-11T00:35:08;1.80;;;0.80;;
17494;SDS011;8864;51.970;4.614;2022-07-11T00:37:36;1.08;;;0.80;;
17494;SDS011;8864;51.970;4.614;2022-07-11T00:40:03;0.90;;;0.60;;
17494;SDS011;8864;51.970;4.614;2022-07-11T00:42:32;1.35;;;0.60;;
17494;SDS011;8864;51.970;4.614;2022-07-11T00:44:59;2.45;;;0.90;;
17494;SDS011;8864;51.970;4.614;2022-07-11T00:47:26;1.30;;;0.82;;
17494;SDS011;8864;51.970;4.614;2022-07-11T00:49:52;1.83;;;0.93;;
17494;SDS011;8864;51.970;4.614;2022-07-11T00:52:21;1.75;;;0.80;;
17494;SDS011;8864;51.970;4.614;2022-07-11T00:54:48;1.30;;;0.70;;
17494;SDS011;8864;51.970;4.614;2022-07-11T00:57:15;1.45;;;0.82;;
17494;SDS011;8864;51.970;4.614;2022-07-11T00:59:43;1.85;;;0.90;;
17494;SDS011;8864;51.970;4.614;2022-07-11T01:02:12;1.25;;;0.82;;
17494;SDS011;8864;51.970;4.614;2022-07-11T01:04:38;1.92;;;0.80;;
17494;SDS011;8864;51.970;4.614;2022-07-11T01:07:05;2.00;;;0.88;;
17494;SDS011;8864;51.970;4.614;2022-07-11T01:09:32;1.38;;;0.80;;
17494;SDS011;8864;51.970;4.614;2022-07-11T01:11:59;1.08;;;0.80;;
17494;SDS011;8864;51.970;4.614;2022-07-11T01:14:26;1.50;;;0.98;;
17494;SDS011;8864;51.970;4.614;2022-07-11T01:16:54;2.22;;;1.05;;
17494;SDS011;8864;51.970;4.614;2022-07-11T01:19:21;1.23;;;0.88;;
17494;SDS011;8864;51.970;4.614;2022-07-11T01:21:49;1.50;;;0.80;;
17494;SDS011;8864;51.970;4.614;2022-07-11T01:24:18;2.08;;;1.00;;
17494;SDS011;8864;51.970;4.614;2022-07-11T01:26:45;1.38;;;0.90;;
17494;SDS011;8864;51.970;4.614;2022-07-11T01:29:13;1.63;;;1.08;;
17494;SDS011;8864;51.970;4.614;2022-07-11T01:31:41;1.52;;;1.00;;
17494;SDS011;8864;51.970;4.614;2022-07-11T01:34:08;1.60;;;1.08;;
17494;SDS011;8864;51.970;4.614;2022-07-11T01:36:35;1.67;;;1.00;;
17494;SDS011;8864;51.970;4.614;2022-07-11T01:39:02;1.73;;;1.27;;
17494;SDS011;8864;51.970;4.614;2022-07-11T01:41:30;1.83;;;1.00;;
17494;SDS011;8864;51.970;4.614;2022-07-11T01:43:57;1.50;;;1.10;;
17494;SDS011;8864;51.970;4.614;2022-07-11T01:46:24;2.90;;;1.40;;
17494;SDS011;8864;51.970;4.614;2022-07-11T01:48:51;1.65;;;1.10;;
17494;SDS011;8864;51.970;4.614;2022-07-11T01:51:17;1.23;;;1.05;;
17494;SDS011;8864;51.970;4.614;2022-07-11T01:53:44;1.80;;;1.13;;
17494;SDS011;8864;51.970;4.614;2022-07-11T01:56:11;1.17;;;1.00;;
17494;SDS011;8864;51.970;4.614;2022-07-11T01:58:39;2.35;;;1.05;;
17494;SDS011;8864;51.970;4.614;2022-07-11T02:01:06;1.30;;;1.00;;
17494;SDS011;8864;51.970;4.614;2022-07-11T02:03:33;1.33;;;1.05;;
17494;SDS011;8864;51.970;4.614;2022-07-11T02:06:00;1.50;;;1.20;;
17494;SDS011;8864;51.970;4.614;2022-07-11T02:08:26;1.08;;;0.95;;
17494;SDS011;8864;51.970;4.614;2022-07-11T02:10:53;1.85;;;1.20;;
17494;SDS011;8864;51.970;4.614;2022-07-11T02:13:21;1.90;;;1.20;;
17494;SDS011;8864;51.970;4.614;2022-07-11T02:15:50;1.70;;;1.10;;
17494;SDS011;8864;51.970;4.614;2022-07-11T02:18:18;1.95;;;1.10;;
17494;SDS011;8864;51.970;4.614;2022-07-11T02:20:46;1.67;;;1.02;;
17494;SDS011;8864;51.970;4.614;2022-07-11T02:23:15;2.15;;;1.33;;
17494;SDS011;8864;51.970;4.614;2022-07-11T02:25:42;1.92;;;1.20;;
17494;SDS011;8864;51.970;4.614;2022-07-11T02:28:09;2.22;;;1.10;;
17494;SDS011;8864;51.970;4.614;2022-07-11T02:30:37;2.10;;;1.20;;
17494;SDS011;8864;51.970;4.614;2022-07-11T02:33:06;1.83;;;1.30;;
17494;SDS011;8864;51.970;4.614;2022-07-11T02:35:36;1.83;;;1.10;;
17494;SDS011;8864;51.970;4.614;2022-07-11T02:38:03;2.03;;;1.05;;
17494;SDS011;8864;51.970;4.614;2022-07-11T02:40:30;2.40;;;1.15;;
17494;SDS011;8864;51.970;4.614;2022-07-11T02:42:56;1.65;;;1.20;;
17494;SDS011;8864;51.970;4.614;2022-07-11T02:45:23;1.75;;;1.40;;
17494;SDS011;8864;51.970;4.614;2022-07-11T02:47:50;1.33;;;1.20;;
17494;SDS011;8864;51.970;4.614;2022-07-11T02:50:18;2.03;;;1.30;;
17494;SDS011;8864;51.970;4.614;2022-07-11T02:52:45;2.33;;;0.98;;
17494;SDS011;8864;51.970;4.614;2022-07-11T02:55:12;2.20;;;1.38;;
17494;SDS011;8864;51.970;4.614;2022-07-11T02:57:40;1.77;;;1.23;;
17494;SDS011;8864;51.970;4.614;2022-07-11T03:00:08;2.15;;;1.30;;
17494;SDS011;8864;51.970;4.614;2022-07-11T03:02:37;2.00;;;1.50;;
17494;SDS011;8864;51.970;4.614;2022-07-11T03:05:05;1.27;;;1.13;;
17494;SDS011;8864;51.970;4.614;2022-07-11T03:07:33;2.10;;;1.30;;
17494;SDS011;8864;51.970;4.614;2022-07-11T03:10:00;1.70;;;1.30;;
17494;SDS011;8864;51.970;4.614;2022-07-11T03:12:27;1.10;;;1.00;;
17494;SDS011;8864;51.970;4.614;2022-07-11T03:14:54;1.73;;;1.30;;
17494;SDS011;8864;51.970;4.614;2022-07-11T03:17:21;2.53;;;1.40;;
17494;SDS011;8864;51.970;4.614;2022-07-11T03:19:48;1.30;;;1.10;;
17494;SDS011;8864;51.970;4.614;2022-07-11T03:22:15;2.03;;;1.25;;
17494;SDS011;8864;51.970;4.614;2022-07-11T03:24:43;1.63;;;1.35;;
17494;SDS011;8864;51.970;4.614;2022-07-11T03:27:11;1.83;;;1.35;;
17494;SDS011;8864;51.970;4.614;2022-07-11T03:29:38;1.33;;;1.10;;
17494;SDS011;8864;51.970;4.614;2022-07-11T03:32:05;1.63;;;1.27;;
17494;SDS011;8864;51.970;4.614;2022-07-11T03:34:33;2.50;;;1.27;;
17494;SDS011;8864;51.970;4.614;2022-07-11T03:37:00;2.22;;;1.50;;
17494;SDS011;8864;51.970;4.614;2022-07-11T03:39:27;2.42;;;1.55;;
17494;SDS011;8864;51.970;4.614;2022-07-11T03:41:55;1.83;;;1.40;;
17494;SDS011;8864;51.970;4.614;2022-07-11T03:44:22;2.75;;;1.27;;
17494;SDS011;8864;51.970;4.614;2022-07-11T03:46:49;2.47;;;1.30;;
17494;SDS011;8864;51.970;4.614;2022-07-11T03:49:16;1.70;;;1.17;;
17494;SDS011;8864;51.970;4.614;2022-07-11T03:51:43;2.40;;;1.30;;
17494;SDS011;8864;51.970;4.614;2022-07-11T03:54:10;1.52;;;1.23;;
17494;SDS011;8864;51.970;4.614;2022-07-11T03:56:37;2.38;;;1.30;;
17494;SDS011;8864;51.970;4.614;2022-07-11T03:59:05;1.30;;;1.08;;
17494;SDS011;8864;51.970;4.614;2022-07-11T04:01:32;2.80;;;1.63;;
17494;SDS011;8864;51.970;4.614;2022-07-11T04:03:59;1.83;;;1.27;;
17494;SDS011;8864;51.970;4.614;2022-07-11T04:06:25;2.78;;;1.20;;
17494;SDS011;8864;51.970;4.614;2022-07-11T04:08:52;1.83;;;1.48;;
17494;SDS011;8864;51.970;4.614;2022-07-11T04:11:19;1.90;;;1.27;;
17494;SDS011;8864;51.970;4.614;2022-07-11T04:13:46;1.45;;;1.33;;
17494;SDS011;8864;51.970;4.614;2022-07-11T04:16:14;2.47;;;1.27;;
17494;SDS011;8864;51.970;4.614;2022-07-11T04:18:41;1.85;;;1.20;;
17494;SDS011;8864;51.970;4.614;2022-07-11T04:21:07;2.08;;;1.50;;
17494;SDS011;8864;51.970;4.614;2022-07-11T04:23:34;2.30;;;1.20;;
17494;SDS011;8864;51.970;4.614;2022-07-11T04:26:01;1.60;;;1.25;;
17494;SDS011;8864;51.970;4.614;2022-07-11T04:28:28;2.53;;;1.42;;
17494;SDS011;8864;51.970;4.614;2022-07-11T04:30:55;2.10;;;1.45;;
17494;SDS011;8864;51.970;4.614;2022-07-11T04:33:24;1.83;;;1.50;;
17494;SDS011;8864;51.970;4.614;2022-07-11T04:35:50;1.92;;;1.40;;
17494;SDS011;8864;51.970;4.614;2022-07-11T04:38:17;2.30;;;1.40;;
17494;SDS011;8864;51.970;4.614;2022-07-11T04:40:46;1.38;;;1.10;;
17494;SDS011;8864;51.970;4.614;2022-07-11T04:43:13;1.90;;;1.15;;
17494;SDS011;8864;51.970;4.614;2022-07-11T04:45:40;1.58;;;1.30;;
17494;SDS011;8864;51.970;4.614;2022-07-11T04:48:06;1.63;;;1.30;;
17494;SDS011;8864;51.970;4.614;2022-07-11T04:50:34;3.05;;;1.70;;
17494;SDS011;8864;51.970;4.614;2022-07-11T04:53:02;2.17;;;1.30;;
17494;SDS011;8864;51.970;4.614;2022-07-11T04:55:28;1.73;;;1.42;;
17494;SDS011;8864;51.970;4.614;2022-07-11T04:57:56;1.95;;;1.25;;
17494;SDS011;8864;51.970;4.614;2022-07-11T05:00:23;2.00;;;1.20;;
17494;SDS011;8864;51.970;4.614;2022-07-11T05:02:50;1.67;;;1.30;;
17494;SDS011;8864;51.970;4.614;2022-07-11T05:05:16;1.30;;;1.17;;
17494;SDS011;8864;51.970;4.614;2022-07-11T05:07:46;1.20;;;1.08;;
17494;SDS011;8864;51.970;4.614;2022-07-11T05:10:12;1.63;;;1.13;;
17494;SDS011;8864;51.970;4.614;2022-07-11T05:12:39;1.52;;;1.25;;
17494;SDS011;8864;51.970;4.614;2022-07-11T05:15:06;1.88;;;1.30;;
17494;SDS011;8864;51.970;4.614;2022-07-11T05:17:34;1.92;;;1.35;;
17494;SDS011;8864;51.970;4.614;2022-07-11T05:20:01;1.25;;;1.13;;
17494;SDS011;8864;51.970;4.614;2022-07-11T05:22:29;1.60;;;1.50;;
17494;SDS011;8864;51.970;4.614;2022-07-11T05:24:57;1.85;;;1.40;;
17494;SDS011;8864;51.970;4.614;2022-07-11T05:27:24;1.90;;;1.25;;
17494;SDS011;8864;51.970;4.614;2022-07-11T05:29:51;2.15;;;1.48;;
17494;SDS011;8864;51.970;4.614;2022-07-11T05:32:17;1.45;;;1.17;;
17494;SDS011;8864;51.970;4.614;2022-07-11T05:34:44;2.17;;;1.17;;
17494;SDS011;8864;51.970;4.614;2022-07-11T05:37:11;1.25;;;1.10;;
17494;SDS011;8864;51.970;4.614;2022-07-11T05:39:38;1.42;;;1.20;;
17494;SDS011;8864;51.970;4.614;2022-07-11T05:42:06;1.60;;;1.30;;
17494;SDS011;8864;51.970;4.614;2022-07-11T05:44:33;1.75;;;1.40;;
17494;SDS011;8864;51.970;4.614;2022-07-11T05:47:00;1.70;;;1.05;;
17494;SDS011;8864;51.970;4.614;2022-07-11T05:49:30;1.95;;;1.27;;
17494;SDS011;8864;51.970;4.614;2022-07-11T05:51:57;1.52;;;1.40;;
17494;SDS011;8864;51.970;4.614;2022-07-11T05:54:24;1.63;;;1.20;;
17494;SDS011;8864;51.970;4.614;2022-07-11T05:56:52;2.35;;;1.20;;
17494;SDS011;8864;51.970;4.614;2022-07-11T05:59:21;1.40;;;1.30;;
17494;SDS011;8864;51.970;4.614;2022-07-11T06:01:48;1.83;;;1.10;;
17494;SDS011;8864;51.970;4.614;2022-07-11T06:04:15;2.42;;;1.17;;
17494;SDS011;8864;51.970;4.614;2022-07-11T06:06:42;2.10;;;1.30;;
17494;SDS011;8864;51.970;4.614;2022-07-11T06:09:09;1.40;;;1.23;;
17494;SDS011;8864;51.970;4.614;2022-07-11T06:11:36;1.38;;;1.13;;
17494;SDS011;8864;51.970;4.614;2022-07-11T06:14:03;1.77;;;1.45;;
17494;SDS011;8864;51.970;4.614;2022-07-11T06:16:32;1.45;;;1.20;;
17494;SDS011;8864;51.970;4.614;2022-07-11T06:19:00;1.45;;;1.17;;
17494;SDS011;8864;51.970;4.614;2022-07-11T06:21:27;1.75;;;1.20;;
17494;SDS011;8864;51.970;4.614;2022-07-11T06:23:54;1.55;;;0.90;;
17494;SDS011;8864;51.970;4.614;2022-07-11T06:26:21;2.25;;;1.33;;
17494;SDS011;8864;51.970;4.614;2022-07-11T06:28:49;2.42;;;1.13;;
17494;SDS011;8864;51.970;4.614;2022-07-11T06:31:16;1.90;;;1.45;;
17494;SDS011;8864;51.970;4.614;2022-07-11T06:33:44;1.92;;;1.33;;
17494;SDS011;8864;51.970;4.614;2022-07-11T06:36:13;1.83;;;1.17;;
17494;SDS011;8864;51.970;4.614;2022-07-11T06:38:40;1.10;;;1.00;;
17494;SDS011;8864;51.970;4.614;2022-07-11T06:41:07;1.25;;;1.02;;
17494;SDS011;8864;51.970;4.614;2022-07-11T06:43:34;1.65;;;1.20;;
17494;SDS011;8864;51.970;4.614;2022-07-11T06:46:01;1.55;;;1.10;;
17494;SDS011;8864;51.970;4.614;2022-07-11T06:48:27;1.20;;;1.10;;
17494;SDS011;8864;51.970;4.614;2022-07-11T06:50:55;1.52;;;1.08;;
17494;SDS011;8864;51.970;4.614;2022-07-11T06:53:22;1.20;;;0.95;;
17494;SDS011;8864;51.970;4.614;2022-07-11T06:55:49;1.33;;;1.20;;
17494;SDS011;8864;51.970;4.614;2022-07-11T06:58:16;2.60;;;1.08;;
17494;SDS011;8864;51.970;4.614;2022-07-11T07:00:57;2.67;;;1.10;;
17494;SDS011;8864;51.970;4.614;2022-07-11T07:03:24;1.00;;;0.90;;
17494;SDS011;8864;51.970;4.614;2022-07-11T07:05:52;2.22;;;1.13;;
17494;SDS011;8864;51.970;4.614;2022-07-11T07:08:24;1.95;;;1.15;;
17494;SDS011;8864;51.970;4.614;2022-07-11T07:10:52;1.65;;;1.17;;
17494;SDS011;8864;51.970;4.614;2022-07-11T07:13:19;1.33;;;1.20;;
17494;SDS011;8864;51.970;4.614;2022-07-11T07:15:50;1.27;;;1.00;;
17494;SDS011;8864;51.970;4.614;2022-07-11T07:18:17;1.13;;;0.90;;
17494;SDS011;8864;51.970;4.614;2022-07-11T07:20:45;1.30;;;1.10;;
17494;SDS011;8864;51.970;4.614;2022-07-11T07:23:13;1.33;;;1.15;;
17494;SDS011;8864;51.970;4.614;2022-07-11T07:25:49;1.85;;;1.27;;
17494;SDS011;8864;51.970;4.614;2022-07-11T07:28:16;1.92;;;1.10;;
17494;SDS011;8864;51.970;4.614;2022-07-11T07:30:43;1.20;;;1.10;;
17494;SDS011;8864;51.970;4.614;2022-07-11T07:33:11;1.20;;;1.10;;
17494;SDS011;8864;51.970;4.614;2022-07-11T07:35:38;1.30;;;1.02;;
17494;SDS011;8864;51.970;4.614;2022-07-11T07:38:05;1.05;;;0.95;;
17494;SDS011;8864;51.970;4.614;2022-07-11T07:40:32;2.22;;;1.30;;
17494;SDS011;8864;51.970;4.614;2022-07-11T07:43:00;1.25;;;0.90;;
17494;SDS011;8864;51.970;4.614;2022-07-11T07:45:27;1.20;;;1.10;;
17494;SDS011;8864;51.970;4.614;2022-07-11T07:47:54;1.17;;;1.08;;
17494;SDS011;8864;51.970;4.614;2022-07-11T07:50:21;1.38;;;1.05;;
17494;SDS011;8864;51.970;4.614;2022-07-11T07:52:48;2.58;;;1.20;;
17494;SDS011;8864;51.970;4.614;2022-07-11T07:55:15;1.00;;;0.90;;
17494;SDS011;8864;51.970;4.614;2022-07-11T07:57:43;1.05;;;0.95;;
17494;SDS011;8864;51.970;4.614;2022-07-11T08:00:12;1.08;;;0.95;;
17494;SDS011;8864;51.970;4.614;2022-07-11T08:02:58;1.40;;;1.23;;
17494;SDS011;8864;51.970;4.614;2022-07-11T08:05:30;1.60;;;1.08;;
17494;SDS011;8864;51.970;4.614;2022-07-11T08:07:57;1.95;;;1.00;;
17494;SDS011;8864;51.970;4.614;2022-07-11T08:10:24;1.45;;;1.00;;
17494;SDS011;8864;51.970;4.614;2022-07-11T08:12:51;1.30;;;1.08;;
17494;SDS011;8864;51.970;4.614;2022-07-11T08:15:19;1.38;;;1.00;;
17494;SDS011;8864;51.970;4.614;2022-07-11T08:17:46;1.52;;;0.88;;
17494;SDS011;8864;51.970;4.614;2022-07-11T08:20:12;1.33;;;1.00;;
17494;SDS011;8864;51.970;4.614;2022-07-11T08:22:39;1.05;;;0.95;;
17494;SDS011;8864;51.970;4.614;2022-07-11T08:25:06;1.35;;;0.85;;
17494;SDS011;8864;51.970;4.614;2022-07-11T08:27:33;1.17;;;1.00;;
17494;SDS011;8864;51.970;4.614;2022-07-11T08:30:03;1.42;;;1.08;;
17494;SDS011;8864;51.970;4.614;2022-07-11T08:32:32;1.58;;;1.02;;
17494;SDS011;8864;51.970;4.614;2022-07-11T08:34:58;1.35;;;1.00;;
17494;SDS011;8864;51.970;4.614;2022-07-11T08:37:25;1.25;;;0.93;;
17494;SDS011;8864;51.970;4.614;2022-07-11T08:39:52;1.00;;;0.88;;
17494;SDS011;8864;51.970;4.614;2022-07-11T08:42:19;1.35;;;1.00;;
17494;SDS011;8864;51.970;4.614;2022-07-11T08:44:46;1.38;;;1.13;;
17494;SDS011;8864;51.970;4.614;2022-07-11T08:47:12;1.58;;;0.90;;
17494;SDS011;8864;51.970;4.614;2022-07-11T08:49:41;1.52;;;1.00;;
17494;SDS011;8864;51.970;4.614;2022-07-11T08:52:10;1.25;;;1.00;;
17494;SDS011;8864;51.970;4.614;2022-07-11T08:54:39;2.00;;;1.00;;
17494;SDS011;8864;51.970;4.614;2022-07-11T08:57:05;2.50;;;1.20;;
17494;SDS011;8864;51.970;4.614;2022-07-11T08:59:33;1.13;;;1.00;;
17494;SDS011;8864;51.970;4.614;2022-07-11T09:02:02;1.35;;;1.00;;
17494;SDS011;8864;51.970;4.614;2022-07-11T09:04:30;1.60;;;1.00;;
17494;SDS011;8864;51.970;4.614;2022-07-11T09:07:00;2.05;;;1.10;;
17494;SDS011;8864;51.970;4.614;2022-07-11T09:09:27;1.00;;;0.90;;
17494;SDS011;8864;51.970;4.614;2022-07-11T09:11:56;1.05;;;0.93;;
17494;SDS011;8864;51.970;4.614;2022-07-11T09:14:24;1.20;;;0.90;;
17494;SDS011;8864;51.970;4.614;2022-07-11T09:16:54;1.20;;;1.10;;
17494;SDS011;8864;51.970;4.614;2022-07-11T09:19:22;1.20;;;0.98;;
17494;SDS011;8864;51.970;4.614;2022-07-11T09:22:02;1.48;;;1.00;;
17494;SDS011;8864;51.970;4.614;2022-07-11T09:24:57;1.80;;;1.30;;
17494;SDS011;8864;51.970;4.614;2022-07-11T09:27:51;1.08;;;0.90;;
17494;SDS011;8864;51.970;4.614;2022-07-11T09:30:21;1.15;;;1.00;;
17494;SDS011;8864;51.970;4.614;2022-07-11T09:32:51;1.25;;;1.10;;
17494;SDS011;8864;51.970;4.614;2022-07-11T09:35:19;1.48;;;1.00;;
17494;SDS011;8864;51.970;4.614;2022-07-11T09:37:48;1.13;;;0.95;;
17494;SDS011;8864;51.970;4.614;2022-07-11T09:40:15;1.40;;;1.00;;
17494;SDS011;8864;51.970;4.614;2022-07-11T09:42:46;1.15;;;0.90;;
17494;SDS011;8864;51.970;4.614;2022-07-11T09:45:14;1.15;;;0.95;;
17494;SDS011;8864;51.970;4.614;2022-07-11T09:47:43;1.13;;;1.00;;
17494;SDS011;8864;51.970;4.614;2022-07-11T09:50:10;1.52;;;1.10;;
17494;SDS011;8864;51.970;4.614;2022-07-11T09:52:38;1.20;;;1.10;;
17494;SDS011;8864;51.970;4.614;2022-07-11T09:55:09;1.80;;;1.00;;
17494;SDS011;8864;51.970;4.614;2022-07-11T09:57:36;1.40;;;1.00;;
17494;SDS011;8864;51.970;4.614;2022-07-11T10:00:06;1.10;;;1.00;;
17494;SDS011;8864;51.970;4.614;2022-07-11T10:02:34;2.05;;;1.05;;
17494;SDS011;8864;51.970;4.614;2022-07-11T10:05:02;1.45;;;1.10;;
17494;SDS011;8864;51.970;4.614;2022-07-11T10:07:30;1.30;;;1.13;;
17494;SDS011;8864;51.970;4.614;2022-07-11T10:09:57;1.00;;;0.90;;
17494;SDS011;8864;51.970;4.614;2022-07-11T10:12:26;1.10;;;0.90;;
17494;SDS011;8864;51.970;4.614;2022-07-11T10:14:54;1.48;;;1.08;;
17494;SDS011;8864;51.970;4.614;2022-07-11T10:17:25;1.52;;;1.10;;
17494;SDS011;8864;51.970;4.614;2022-07-11T10:19:57;1.15;;;1.05;;
17494;SDS011;8864;51.970;4.614;2022-07-11T10:22:31;1.10;;;1.00;;
17494;SDS011;8864;51.970;4.614;2022-07-11T10:25:05;1.48;;;1.15;;
17494;SDS011;8864;51.970;4.614;2022-07-11T10:27:42;0.90;;;0.90;;
17494;SDS011;8864;51.970;4.614;2022-07-11T10:33:12;1.42;;;1.10;;
17494;SDS011;8864;51.970;4.614;2022-07-11T10:35:41;1.20;;;1.02;;
17494;SDS011;8864;51.970;4.614;2022-07-11T10:38:09;1.30;;;1.20;;
17494;SDS011;8864;51.970;4.614;2022-07-11T10:40:45;1.08;;;0.95;;
17494;SDS011;8864;51.970;4.614;2022-07-11T10:43:16;1.27;;;1.13;;
17494;SDS011;8864;51.970;4.614;2022-07-11T10:46:01;1.15;;;1.00;;
17494;SDS011;8864;51.970;4.614;2022-07-11T10:48:34;1.00;;;0.90;;
17494;SDS011;8864;51.970;4.614;2022-07-11T10:51:19;1.20;;;0.95;;
17494;SDS011;8864;51.970;4.614;2022-07-11T10:53:49;1.23;;;1.10;;
17494;SDS011;8864;51.970;4.614;2022-07-11T10:56:20;1.23;;;1.10;;
17494;SDS011;8864;51.970;4.614;2022-07-11T10:58:58;1.42;;;1.20;;
17494;SDS011;8864;51.970;4.614;2022-07-11T11:01:44;1.73;;;1.40;;
17494;SDS011;8864;51.970;4.614;2022-07-11T11:04:44;1.48;;;1.20;;
17494;SDS011;8864;51.970;4.614;2022-07-11T11:07:28;1.08;;;0.98;;
17494;SDS011;8864;51.970;4.614;2022-07-11T11:10:04;1.20;;;1.10;;
17494;SDS011;8864;51.970;4.614;2022-07-11T11:15:41;1.30;;;1.08;;
17494;SDS011;8864;51.970;4.614;2022-07-11T11:21:20;1.13;;;0.90;;
17494;SDS011;8864;51.970;4.614;2022-07-11T11:24:01;1.50;;;1.33;;
17494;SDS011;8864;51.970;4.614;2022-07-11T11:26:47;1.90;;;1.05;;
17494;SDS011;8864;51.970;4.614;2022-07-11T11:29:22;1.20;;;1.00;;
17494;SDS011;8864;51.970;4.614;2022-07-11T11:31:52;1.20;;;1.10;;
17494;SDS011;8864;51.970;4.614;2022-07-11T11:34:20;1.15;;;1.05;;
17494;SDS011;8864;51.970;4.614;2022-07-11T11:36:51;1.48;;;1.27;;
17494;SDS011;8864;51.970;4.614;2022-07-11T11:39:23;1.42;;;1.15;;
17494;SDS011;8864;51.970;4.614;2022-07-11T11:41:51;1.30;;;1.10;;
17494;SDS011;8864;51.970;4.614;2022-07-11T11:44:53;1.45;;;1.10;;
17494;SDS011;8864;51.970;4.614;2022-07-11T11:47:23;1.65;;;1.23;;
17494;SDS011;8864;51.970;4.614;2022-07-11T11:49:50;1.23;;;1.10;;
17494;SDS011;8864;51.970;4.614;2022-07-11T11:52:18;1.60;;;1.05;;
17494;SDS011;8864;51.970;4.614;2022-07-11T11:54:52;1.55;;;1.15;;
17494;SDS011;8864;51.970;4.614;2022-07-11T11:57:21;2.42;;;1.30;;
17494;SDS011;8864;51.970;4.614;2022-07-11T11:59:50;1.20;;;1.05;;
17494;SDS011;8864;51.970;4.614;2022-07-11T12:02:26;1.13;;;1.02;;
17494;SDS011;8864;51.970;4.614;2022-07-11T12:04:54;1.30;;;1.10;;
17494;SDS011;8864;51.970;4.614;2022-07-11T12:07:22;1.13;;;1.00;;
17494;SDS011;8864;51.970;4.614;2022-07-11T12:09:51;1.90;;;1.30;;
17494;SDS011;8864;51.970;4.614;2022-07-11T12:12:21;1.40;;;1.10;;
17494;SDS011;8864;51.970;4.614;2022-07-11T12:15:23;1.33;;;1.05;;
17494;SDS011;8864;51.970;4.614;2022-07-11T12:17:59;1.30;;;1.10;;
17494;SDS011;8864;51.970;4.614;2022-07-11T12:20:36;1.55;;;0.93;;
17494;SDS011;8864;51.970;4.614;2022-07-11T12:23:05;1.17;;;0.95;;
17494;SDS011;8864;51.970;4.614;2022-07-11T12:25:34;1.52;;;1.33;;
17494;SDS011;8864;51.970;4.614;2022-07-11T12:28:02;1.13;;;1.00;;
17494;SDS011;8864;51.970;4.614;2022-07-11T12:30:32;1.10;;;1.00;;
17494;SDS011;8864;51.970;4.614;2022-07-11T12:33:08;1.10;;;1.00;;
17494;SDS011;8864;51.970;4.614;2022-07-11T12:35:36;1.73;;;1.08;;
17494;SDS011;8864;51.970;4.614;2022-07-11T12:38:18;1.20;;;1.10;;
17494;SDS011;8864;51.970;4.614;2022-07-11T12:40:56;1.17;;;1.08;;
17494;SDS011;8864;51.970;4.614;2022-07-11T12:43:37;1.50;;;1.00;;
17494;SDS011;8864;51.970;4.614;2022-07-11T12:46:24;1.30;;;1.20;;
17494;SDS011;8864;51.970;4.614;2022-07-11T12:48:52;1.30;;;1.05;;
17494;SDS011;8864;51.970;4.614;2022-07-11T12:51:25;1.48;;;1.08;;
17494;SDS011;8864;51.970;4.614;2022-07-11T12:53:57;1.63;;;1.17;;
17494;SDS011;8864;51.970;4.614;2022-07-11T12:56:26;1.67;;;1.17;;
17494;SDS011;8864;51.970;4.614;2022-07-11T12:58:53;1.10;;;1.00;;
17494;SDS011;8864;51.970;4.614;2022-07-11T13:01:20;1.45;;;0.93;;
17494;SDS011;8864;51.970;4.614;2022-07-11T13:03:46;1.15;;;1.05;;
17494;SDS011;8864;51.970;4.614;2022-07-11T13:06:16;2.15;;;1.20;;
17494;SDS011;8864;51.970;4.614;2022-07-11T13:09:03;1.88;;;1.20;;
17494;SDS011;8864;51.970;4.614;2022-07-11T13:11:28;1.10;;;1.00;;
17494;SDS011;8864;51.970;4.614;2022-07-11T13:13:56;1.23;;;1.13;;
17494;SDS011;8864;51.970;4.614;2022-07-11T13:16:23;1.20;;;1.10;;
17494;SDS011;8864;51.970;4.614;2022-07-11T13:18:50;1.58;;;1.13;;
17494;SDS011;8864;51.970;4.614;2022-07-11T13:21:18;1.48;;;1.27;;
17494;SDS011;8864;51.970;4.614;2022-07-11T13:23:45;1.25;;;1.15;;
17494;SDS011;8864;51.970;4.614;2022-07-11T13:26:12;0.80;;;0.80;;
17494;SDS011;8864;51.970;4.614;2022-07-11T13:28:40;1.08;;;0.98;;
17494;SDS011;8864;51.970;4.614;2022-07-11T13:31:07;1.02;;;0.93;;
17494;SDS011;8864;51.970;4.614;2022-07-11T13:33:34;1.45;;;1.00;;
17494;SDS011;8864;51.970;4.614;2022-07-11T13:36:03;1.08;;;0.98;;
17494;SDS011;8864;51.970;4.614;2022-07-11T13:38:32;2.15;;;1.30;;
17494;SDS011;8864;51.970;4.614;2022-07-11T13:40:58;1.02;;;0.90;;
17494;SDS011;8864;51.970;4.614;2022-07-11T13:43:25;1.20;;;1.08;;
17494;SDS011;8864;51.970;4.614;2022-07-11T13:45:52;1.67;;;1.08;;
17494;SDS011;8864;51.970;4.614;2022-07-11T13:48:19;1.13;;;1.02;;
17494;SDS011;8864;51.970;4.614;2022-07-11T13:50:46;0.90;;;0.88;;
17494;SDS011;8864;51.970;4.614;2022-07-11T13:53:12;1.33;;;1.15;;
17494;SDS011;8864;51.970;4.614;2022-07-11T13:55:40;1.20;;;1.10;;
17494;SDS011;8864;51.970;4.614;2022-07-11T13:58:07;1.00;;;0.90;;
17494;SDS011;8864;51.970;4.614;2022-07-11T14:00:49;1.00;;;0.90;;
17494;SDS011;8864;51.970;4.614;2022-07-11T14:03:16;2.13;;;1.02;;
17494;SDS011;8864;51.970;4.614;2022-07-11T14:05:43;1.00;;;0.95;;
17494;SDS011;8864;51.970;4.614;2022-07-11T14:08:10;1.23;;;1.13;;
17494;SDS011;8864;51.970;4.614;2022-07-11T14:10:37;1.38;;;1.00;;
17494;SDS011;8864;51.970;4.614;2022-07-11T14:13:07;1.10;;;1.00;;
17494;SDS011;8864;51.970;4.614;2022-07-11T14:15:33;1.30;;;1.20;;
17494;SDS011;8864;51.970;4.614;2022-07-11T14:18:00;1.08;;;0.98;;
17494;SDS011;8864;51.970;4.614;2022-07-11T14:20:27;1.17;;;1.05;;
17494;SDS011;8864;51.970;4.614;2022-07-11T14:22:54;1.05;;;0.95;;
17494;SDS011;8864;51.970;4.614;2022-07-11T14:25:21;1.13;;;0.95;;
17494;SDS011;8864;51.970;4.614;2022-07-11T14:27:50;1.13;;;1.02;;
17494;SDS011;8864;51.970;4.614;2022-07-11T14:30:17;1.52;;;1.10;;
17494;SDS011;8864;51.970;4.614;2022-07-11T14:32:44;1.58;;;1.05;;
17494;SDS011;8864;51.970;4.614;2022-07-11T14:35:11;1.40;;;1.05;;
17494;SDS011;8864;51.970;4.614;2022-07-11T14:37:37;0.98;;;0.88;;
17494;SDS011;8864;51.970;4.614;2022-07-11T14:40:05;1.02;;;0.93;;
17494;SDS011;8864;51.970;4.614;2022-07-11T14:42:32;1.38;;;1.10;;
17494;SDS011;8864;51.970;4.614;2022-07-11T14:45:01;1.00;;;0.82;;
17494;SDS011;8864;51.970;4.614;2022-07-11T14:47:27;0.95;;;0.90;;
17494;SDS011;8864;51.970;4.614;2022-07-11T14:49:54;1.20;;;0.90;;
17494;SDS011;8864;51.970;4.614;2022-07-11T14:52:21;1.20;;;0.93;;
17494;SDS011;8864;51.970;4.614;2022-07-11T14:54:48;1.25;;;1.00;;
17494;SDS011;8864;51.970;4.614;2022-07-11T14:57:15;1.23;;;0.90;;
17494;SDS011;8864;51.970;4.614;2022-07-11T14:59:42;1.02;;;0.90;;
17494;SDS011;8864;51.970;4.614;2022-07-11T15:02:10;1.15;;;0.80;;
17494;SDS011;8864;51.970;4.614;2022-07-11T15:04:37;1.05;;;0.90;;
17494;SDS011;8864;51.970;4.614;2022-07-11T15:07:03;1.10;;;0.90;;
17494;SDS011;8864;51.970;4.614;2022-07-11T15:09:48;1.10;;;1.00;;
17494;SDS011;8864;51.970;4.614;2022-07-11T15:12:32;1.60;;;1.10;;
17494;SDS011;8864;51.970;4.614;2022-07-11T15:14:59;1.27;;;1.02;;
17494;SDS011;8864;51.970;4.614;2022-07-11T15:17:27;1.73;;;1.00;;
17494;SDS011;8864;51.970;4.614;2022-07-11T15:19:54;1.10;;;0.93;;